createdAt,value
2022-08-09T00:01:00.322Z,4.30
2022-08-09T00:04:05.801Z,4.70
2022-08-09T00:06:57.604Z,4.20
2022-08-09T00:09:49.742Z,4.40
2022-08-09T00:12:41.980Z,4.60
2022-08-09T00:15:59.637Z,5.50
2022-08-09T00:18:52.862Z,3.70
2022-08-09T00:21:56.095Z,5.30
2022-08-09T00:24:48.835Z,4.50
2022-08-09T00:27:43.013Z,4.70
2022-08-09T00:30:35.803Z,6.50
2022-08-09T00:33:32.693Z,6.00
2022-08-09T00:36:41.490Z,3.70
2022-08-09T00:40:12.465Z,4.00
2022-08-09T00:44:15.771Z,4.50
2022-08-09T00:46:00.270Z,4.30
2022-08-09T00:48:55.989Z,4.10
2022-08-09T00:51:54.275Z,4.50
2022-08-09T00:54:48.578Z,5.90
2022-08-09T00:57:41.013Z,3.60
2022-08-09T01:00:35.143Z,4.30
2022-08-09T01:03:36.539Z,5.70
2022-08-09T01:06:54.468Z,3.80
2022-08-09T01:09:55.910Z,7.20
2022-08-09T01:12:56.753Z,3.00
2022-08-09T01:15:52.539Z,3.80
2022-08-09T01:18:38.501Z,5.10
2022-08-09T01:21:50.842Z,6.30
2022-08-09T01:24:58.368Z,4.70
2022-08-09T01:27:57.003Z,3.10
2022-08-09T01:30:53.108Z,4.70
2022-08-09T01:33:50.042Z,7.00
2022-08-09T01:36:45.040Z,4.70
2022-08-09T01:39:40.774Z,4.40
2022-08-09T01:42:36.041Z,4.50
2022-08-09T01:45:30.991Z,4.30
2022-08-09T01:48:29.704Z,5.00
2022-08-09T01:51:23.378Z,6.40
2022-08-09T01:54:21.447Z,4.90
2022-08-09T01:57:18.543Z,5.00
2022-08-09T02:00:34.569Z,5.60
2022-08-09T02:03:29.613Z,4.70
2022-08-09T02:06:38.595Z,4.00
2022-08-09T02:09:42.092Z,3.40
2022-08-09T02:12:36.484Z,3.60
2022-08-09T02:15:48.897Z,3.60
2022-08-09T02:18:47.895Z,8.60
2022-08-09T02:21:45.222Z,4.20
2022-08-09T02:24:42.308Z,7.00
2022-08-09T02:27:57.367Z,4.70
2022-08-09T02:30:56.170Z,4.30
2022-08-09T02:34:07.191Z,4.60
2022-08-09T02:37:12.116Z,4.20
2022-08-09T02:40:10.549Z,3.00
2022-08-09T02:43:04.741Z,3.80
2022-08-09T02:46:00.073Z,4.90
2022-08-09T02:48:55.711Z,3.80
2022-08-09T02:51:51.357Z,5.80
2022-08-09T02:54:54.401Z,3.80
2022-08-09T02:57:59.960Z,6.70
2022-08-09T03:00:58.367Z,3.80
2022-08-09T03:04:16.651Z,4.90
2022-08-09T03:07:13.824Z,5.40
2022-08-09T03:10:06.172Z,6.60
2022-08-09T03:12:51.934Z,4.70
2022-08-09T03:16:06.018Z,3.90
2022-08-09T03:19:02.066Z,4.20
2022-08-09T03:21:55.934Z,6.80
2022-08-09T03:24:52.766Z,4.40
2022-08-09T03:28:00.580Z,5.00
2022-08-09T03:30:44.010Z,5.20
2022-08-09T03:33:53.627Z,3.80
2022-08-09T03:36:58.351Z,4.80
2022-08-09T03:39:55.635Z,5.90
2022-08-09T03:42:48.695Z,4.80
2022-08-09T03:46:03.358Z,7.20
2022-08-09T03:48:56.083Z,5.90
2022-08-09T03:51:57.009Z,6.80
2022-08-09T03:54:54.015Z,6.30
2022-08-09T03:58:03.193Z,6.00
2022-08-09T04:00:59.323Z,6.40
2022-08-09T04:04:02.210Z,3.70
2022-08-09T04:06:58.239Z,5.50
2022-08-09T04:09:53.666Z,4.80
2022-08-09T04:12:49.858Z,5.30
2022-08-09T04:16:19.352Z,6.60
2022-08-09T04:18:56.742Z,6.40
2022-08-09T04:21:49.422Z,6.90
2022-08-09T04:24:41.423Z,6.10
2022-08-09T04:27:33.946Z,6.00
2022-08-09T04:30:30.419Z,5.10
2022-08-09T04:33:23.640Z,5.70
2022-08-09T04:36:21.055Z,7.80
2022-08-09T04:39:15.952Z,6.60
2022-08-09T04:42:09.357Z,6.60
2022-08-09T04:45:02.905Z,6.70
2022-08-09T04:48:00.200Z,4.90
2022-08-09T04:50:56.392Z,4.90
2022-08-09T04:53:40.685Z,5.20
2022-08-09T04:56:34.670Z,6.70
2022-08-09T04:59:26.966Z,5.70
2022-08-09T05:02:22.259Z,5.70
2022-08-09T05:05:14.248Z,5.80
2022-08-09T05:08:23.711Z,4.50
2022-08-09T05:11:23.545Z,6.10
2022-08-09T05:14:22.689Z,5.90
2022-08-09T05:18:37.604Z,8.00
2022-08-09T05:20:14.353Z,5.50
2022-08-09T05:23:56.997Z,6.90
2022-08-09T05:26:35.300Z,5.60
2022-08-09T05:29:31.398Z,9.60
2022-08-09T05:32:30.096Z,5.60
2022-08-09T05:35:22.623Z,6.40
2022-08-09T05:38:22.109Z,6.90
2022-08-09T05:41:04.286Z,5.30
2022-08-09T05:43:59.130Z,14.90
2022-08-09T05:46:43.632Z,5.10
2022-08-09T05:50:24.461Z,10.00
2022-08-09T05:52:53.628Z,5.60
2022-08-09T05:55:46.184Z,5.80
2022-08-09T05:58:32.500Z,8.00
2022-08-09T06:01:25.807Z,8.20
2022-08-09T06:04:25.768Z,6.70
2022-08-09T06:07:28.153Z,9.30
2022-08-09T06:10:20.194Z,6.30
2022-08-09T06:13:18.626Z,11.80
2022-08-09T06:16:12.621Z,6.50
2022-08-09T06:19:04.791Z,7.80
2022-08-09T06:21:58.771Z,7.00
2022-08-09T06:24:42.168Z,12.80
2022-08-09T06:27:42.436Z,15.30
2022-08-09T06:30:40.166Z,8.40
2022-08-09T06:33:41.439Z,19.40
2022-08-09T06:36:33.969Z,8.70
2022-08-09T06:39:26.108Z,9.50
2022-08-09T06:42:45.057Z,6.80
2022-08-09T06:46:06.262Z,6.30
2022-08-09T06:48:51.491Z,7.80
2022-08-09T06:51:50.484Z,6.20
2022-08-09T06:54:43.291Z,10.40
2022-08-09T06:58:01.746Z,6.20
2022-08-09T07:00:58.416Z,6.60
2022-08-09T07:03:53.098Z,7.60
2022-08-09T07:06:46.246Z,5.50
2022-08-09T07:09:55.092Z,5.30
2022-08-09T07:12:57.095Z,5.50
2022-08-09T07:16:35.098Z,6.80
2022-08-09T07:18:56.306Z,6.70
2022-08-09T07:21:55.685Z,8.20
2022-08-09T07:24:49.990Z,5.30
2022-08-09T07:27:53.289Z,5.40
2022-08-09T07:30:47.451Z,6.60
2022-08-09T07:33:52.900Z,6.60
2022-08-09T07:36:47.391Z,4.80
2022-08-09T07:39:41.616Z,7.20
2022-08-09T07:42:34.537Z,6.60
2022-08-09T07:45:39.178Z,5.00
2022-08-09T07:48:32.501Z,5.30
2022-08-09T07:52:05.013Z,6.50
2022-08-09T07:54:31.702Z,6.30
2022-08-09T07:57:23.765Z,8.50
2022-08-09T08:00:36.257Z,6.30
2022-08-09T08:03:18.804Z,5.30
2022-08-09T08:06:09.845Z,4.70
2022-08-09T08:09:07.679Z,4.80
2022-08-09T08:12:27.721Z,5.50
2022-08-09T08:15:13.955Z,4.80
2022-08-09T08:18:06.598Z,4.10
2022-08-09T08:20:59.439Z,5.10
2022-08-09T08:23:55.925Z,4.60
2022-08-09T08:26:55.849Z,4.20
2022-08-09T08:29:50.285Z,3.80
2022-08-09T08:32:52.425Z,3.60
2022-08-09T08:35:25.004Z,4.30
2022-08-09T08:38:29.509Z,6.40
2022-08-09T08:41:22.086Z,6.30
2022-08-09T08:44:05.450Z,5.70
2022-08-09T08:47:05.099Z,5.60
2022-08-09T08:50:05.981Z,6.10
2022-08-09T08:53:00.552Z,8.40
2022-08-09T08:55:53.217Z,8.20
2022-08-09T08:58:46.423Z,9.20
2022-08-09T09:01:52.270Z,5.10
2022-08-09T09:04:52.541Z,5.80
2022-08-09T09:07:50.540Z,6.30
2022-08-09T09:10:44.979Z,4.70
2022-08-09T09:13:56.643Z,4.90
2022-08-09T09:16:50.470Z,4.30
2022-08-09T09:19:45.025Z,4.50
2022-08-09T09:26:00.867Z,5.50
2022-08-09T09:29:04.526Z,4.70
2022-08-09T09:32:15.411Z,9.90
2022-08-09T09:35:10.409Z,5.00
2022-08-09T09:38:09.554Z,6.70
2022-08-09T09:41:10.784Z,5.60
2022-08-09T09:44:12.148Z,4.80
2022-08-09T09:47:16.738Z,6.70
2022-08-09T09:50:14.354Z,5.70
2022-08-09T09:53:10.446Z,4.80
2022-08-09T09:56:05.557Z,5.60
2022-08-09T09:58:57.967Z,4.60
2022-08-09T10:02:02.032Z,4.80
2022-08-09T10:05:08.811Z,5.30
2022-08-09T10:08:27.299Z,4.30
2022-08-09T10:12:00.376Z,9.30
2022-08-09T10:14:35.098Z,5.10
2022-08-09T10:17:50.916Z,5.20
2022-08-09T10:20:48.145Z,5.00
2022-08-09T10:23:45.911Z,6.00
2022-08-09T10:26:41.151Z,6.70
2022-08-09T10:30:41.953Z,4.50
2022-08-09T10:32:48.202Z,6.90
2022-08-09T10:35:40.790Z,5.30
2022-08-09T10:38:56.541Z,3.80
2022-08-09T10:41:42.599Z,7.10
2022-08-09T10:44:37.279Z,6.00
2022-08-09T10:48:17.211Z,5.40
2022-08-09T10:51:12.303Z,3.30
2022-08-09T10:54:13.006Z,6.50
2022-08-09T10:57:11.209Z,4.50
2022-08-09T11:00:25.486Z,3.80
2022-08-09T11:03:46.848Z,3.90
2022-08-09T11:06:38.490Z,4.50
2022-08-09T11:09:53.379Z,4.90
2022-08-09T11:13:49.198Z,8.80
2022-08-09T11:16:40.843Z,5.20
2022-08-09T11:20:11.088Z,4.60
2022-08-09T11:26:04.094Z,3.90
2022-08-09T11:28:57.299Z,4.30
2022-08-09T11:31:52.564Z,5.00
2022-08-09T11:34:52.447Z,4.90
2022-08-09T11:37:49.823Z,6.30
2022-08-09T11:40:42.738Z,5.20
2022-08-09T11:43:48.967Z,5.40
2022-08-09T11:47:01.106Z,5.40
2022-08-09T11:50:55.663Z,5.30
2022-08-09T11:54:01.257Z,4.60
2022-08-09T11:56:47.766Z,4.40
2022-08-09T11:59:41.015Z,6.20
2022-08-09T12:02:50.946Z,5.90
2022-08-09T12:05:47.339Z,4.70
2022-08-09T12:08:45.967Z,3.80
2022-08-09T12:12:02.097Z,4.50
2022-08-09T12:15:07.569Z,6.00
2022-08-09T12:18:01.531Z,8.20
2022-08-09T12:20:54.033Z,4.80
2022-08-09T12:23:58.832Z,4.50
2022-08-09T12:29:12.071Z,5.00
2022-08-09T12:30:35.616Z,4.10
2022-08-09T12:33:50.957Z,4.60
2022-08-09T12:36:58.652Z,6.20
2022-08-09T12:40:08.423Z,28.40
2022-08-09T12:43:00.828Z,3.70
2022-08-09T12:46:00.151Z,4.90
2022-08-09T12:48:54.442Z,3.80
2022-08-09T12:52:02.465Z,7.50
2022-08-09T12:55:00.749Z,4.20
2022-08-09T12:58:24.238Z,5.90
2022-08-09T13:01:27.190Z,4.20
2022-08-09T13:04:36.293Z,2.80
2022-08-09T13:07:51.400Z,2.50
2022-08-09T13:10:52.368Z,2.80
2022-08-09T13:14:36.997Z,6.80
2022-08-09T13:16:58.735Z,14.80
2022-08-09T13:20:10.562Z,3.90
2022-08-09T13:24:16.341Z,3.70
2022-08-09T13:26:37.066Z,6.50
2022-08-09T13:29:33.589Z,2.80
2022-08-09T13:32:48.916Z,4.10
2022-08-09T13:36:37.413Z,4.50
2022-08-09T13:38:59.112Z,5.80
2022-08-09T13:42:01.351Z,3.50
2022-08-09T13:44:53.752Z,4.60
2022-08-09T13:47:51.259Z,10.20
2022-08-09T13:50:46.841Z,5.40
2022-08-09T13:53:43.536Z,5.00
2022-08-09T13:56:37.141Z,4.00
2022-08-09T13:59:41.800Z,7.20
2022-08-09T14:02:28.524Z,3.00
2022-08-09T14:06:01.459Z,4.70
2022-08-09T14:08:33.367Z,7.30
2022-08-09T14:11:25.663Z,10.90
2022-08-09T14:14:25.705Z,12.60
2022-08-09T14:17:22.619Z,6.90
2022-08-09T14:20:16.216Z,8.70
2022-08-09T14:23:08.423Z,4.60
2022-08-09T14:26:12.961Z,4.20
2022-08-09T14:30:04.257Z,4.50
2022-08-09T14:32:28.773Z,6.00
2022-08-09T14:35:02.777Z,19.50
2022-08-09T14:38:02.814Z,6.40
2022-08-09T14:41:01.980Z,7.20
2022-08-09T14:44:11.120Z,4.00
2022-08-09T14:47:29.037Z,8.60
2022-08-09T14:50:17.407Z,6.40
2022-08-09T14:53:13.956Z,5.30
2022-08-09T14:56:08.016Z,2.90
2022-08-09T14:59:05.335Z,6.50
2022-08-09T15:02:06.641Z,4.70
2022-08-09T15:05:01.434Z,5.90
2022-08-09T15:07:56.847Z,5.40
2022-08-09T15:11:00.798Z,5.30
2022-08-09T15:14:04.092Z,8.00
2022-08-09T15:16:57.256Z,9.70
2022-08-09T15:19:54.605Z,6.10
2022-08-09T15:23:02.837Z,8.00
2022-08-09T15:25:57.574Z,5.90
2022-08-09T15:28:54.683Z,5.90
2022-08-09T15:31:47.502Z,12.00
2022-08-09T15:34:39.849Z,5.20
2022-08-09T15:37:57.252Z,7.40
2022-08-09T15:40:51.618Z,6.20
2022-08-09T15:43:43.780Z,4.80
2022-08-09T15:46:36.125Z,5.10
2022-08-09T15:49:31.109Z,7.00
2022-08-09T15:52:24.513Z,4.60
2022-08-09T15:55:19.996Z,4.10
2022-08-09T15:58:26.399Z,7.90
2022-08-09T16:01:19.502Z,8.20
2022-08-09T16:04:13.405Z,7.20
2022-08-09T16:07:06.890Z,5.90
2022-08-09T16:10:04.320Z,4.00
2022-08-09T16:12:57.576Z,4.60
2022-08-09T16:16:04.421Z,5.90
2022-08-09T16:19:02.843Z,6.50
2022-08-09T16:21:56.400Z,5.30
2022-08-09T16:24:56.883Z,5.40
2022-08-09T16:27:52.894Z,3.90
2022-08-09T16:30:58.840Z,4.20
2022-08-09T16:33:45.011Z,5.80
2022-08-09T16:36:37.738Z,4.90
2022-08-09T16:39:30.808Z,4.90
2022-08-09T16:42:45.298Z,8.80
2022-08-09T16:45:44.055Z,8.30
2022-08-09T16:48:55.921Z,9.20
2022-08-09T16:51:53.942Z,8.40
2022-08-09T16:54:47.815Z,7.40
2022-08-09T16:58:08.668Z,5.40
2022-08-09T17:00:55.391Z,9.50
2022-08-09T17:03:47.764Z,5.90
2022-08-09T17:06:47.390Z,6.30
2022-08-09T17:09:53.961Z,6.70
2022-08-09T17:12:55.534Z,5.60
2022-08-09T17:16:00.365Z,15.00
2022-08-09T17:18:54.410Z,3.90
2022-08-09T17:21:47.035Z,6.20
2022-08-09T17:24:47.539Z,7.10
2022-08-09T17:27:49.158Z,4.60
2022-08-09T17:30:47.555Z,6.10
2022-08-09T17:33:40.279Z,5.10
2022-08-09T17:36:32.825Z,8.20
2022-08-09T17:39:25.102Z,6.20
2022-08-09T17:42:41.259Z,6.40
2022-08-09T17:46:01.866Z,4.00
2022-08-09T17:48:46.506Z,6.60
2022-08-09T17:51:44.777Z,8.50
2022-08-09T17:54:38.801Z,5.00
2022-08-09T17:58:03.304Z,5.20
2022-08-09T18:00:46.676Z,11.50
2022-08-09T18:03:40.571Z,6.00
2022-08-09T18:06:33.968Z,7.30
2022-08-09T18:09:40.481Z,5.30
2022-08-09T18:12:40.515Z,4.90
2022-08-09T18:16:04.970Z,5.30
2022-08-09T18:18:50.803Z,3.80
2022-08-09T18:21:42.981Z,5.20
2022-08-09T18:24:40.500Z,4.40
2022-08-09T18:28:02.340Z,5.70
2022-08-09T18:30:49.199Z,5.30
2022-08-09T18:33:48.869Z,6.50
2022-08-09T18:36:49.509Z,5.80
2022-08-09T18:39:25.214Z,7.10
2022-08-09T18:42:17.853Z,6.50
2022-08-09T18:45:21.546Z,6.90
2022-08-09T18:48:30.134Z,6.40
2022-08-09T18:51:38.500Z,6.30
2022-08-09T18:54:42.224Z,8.40
2022-08-09T19:00:38.068Z,9.40
2022-08-09T19:03:31.043Z,9.40
2022-08-09T19:06:50.360Z,10.30
2022-08-09T19:10:17.026Z,14.20
2022-08-09T19:13:19.272Z,13.50
2022-08-09T19:16:09.519Z,15.90
2022-08-09T19:19:01.828Z,13.20
2022-08-09T19:22:15.256Z,14.70
2022-08-09T19:25:42.562Z,14.50
2022-08-09T19:28:28.828Z,15.30
2022-08-09T19:31:21.294Z,14.30
2022-08-09T19:34:21.538Z,15.50
2022-08-09T19:37:17.204Z,14.70
2022-08-09T19:40:05.496Z,15.30
2022-08-09T19:42:58.234Z,7.80
2022-08-09T19:45:55.702Z,9.50
2022-08-09T19:49:00.744Z,14.80
2022-08-09T19:51:55.000Z,12.10
2022-08-09T19:54:48.968Z,15.30
2022-08-09T19:57:41.352Z,12.70
2022-08-09T20:00:34.883Z,11.40
2022-08-09T20:04:17.215Z,11.50
2022-08-09T20:06:39.965Z,11.40
2022-08-09T20:09:44.479Z,17.90
2022-08-09T20:12:45.846Z,10.40
2022-08-09T20:16:33.756Z,14.50
2022-08-09T20:18:52.018Z,10.90
2022-08-09T20:22:04.763Z,10.40
2022-08-09T20:25:02.176Z,11.40
2022-08-09T20:27:57.079Z,11.50
2022-08-09T20:30:49.729Z,9.90
2022-08-09T20:33:44.307Z,9.10
2022-08-09T20:36:37.353Z,10.80
2022-08-09T20:40:16.122Z,9.90
2022-08-09T20:42:53.199Z,10.20
2022-08-09T20:46:00.651Z,10.40
2022-08-09T20:49:05.189Z,10.50
2022-08-09T20:54:58.097Z,9.80
2022-08-09T20:58:05.488Z,9.80
2022-08-09T21:01:33.327Z,11.40
2022-08-09T21:05:56.870Z,11.10
2022-08-09T21:07:38.644Z,8.90
2022-08-09T21:10:33.071Z,11.40
2022-08-09T21:13:27.936Z,8.80
2022-08-09T21:16:42.149Z,10.70
2022-08-09T21:20:17.512Z,14.10
2022-08-09T21:22:53.914Z,11.40
2022-08-09T21:25:55.699Z,10.90
2022-08-09T21:28:57.060Z,10.10
2022-08-09T21:31:49.829Z,16.00
2022-08-09T21:34:48.220Z,14.90
2022-08-09T21:37:58.765Z,14.30
2022-08-09T21:40:52.161Z,21.90
2022-08-09T21:43:56.711Z,15.80
2022-08-09T21:46:50.195Z,18.20
2022-08-09T21:49:43.473Z,16.60
2022-08-09T21:52:35.535Z,17.20
2022-08-09T21:55:29.879Z,21.60
2022-08-09T21:58:31.115Z,15.70
2022-08-09T22:01:45.054Z,17.60
2022-08-09T22:04:57.097Z,18.20
2022-08-09T22:07:53.061Z,19.40
2022-08-09T22:11:49.108Z,16.60
2022-08-09T22:13:51.188Z,17.50
2022-08-09T22:16:44.656Z,15.20
2022-08-09T22:19:59.015Z,15.40
2022-08-09T22:22:50.160Z,15.20
2022-08-09T22:26:06.056Z,16.60
2022-08-09T22:28:56.515Z,13.30
2022-08-09T22:31:56.756Z,18.40
2022-08-09T22:34:50.156Z,15.40
2022-08-09T22:38:03.303Z,17.90
2022-08-09T22:41:02.042Z,16.90
2022-08-09T22:44:01.579Z,13.60
2022-08-09T22:48:12.407Z,15.60
2022-08-09T22:50:09.874Z,15.40
2022-08-09T22:53:05.718Z,13.10
2022-08-09T22:56:29.801Z,14.20
2022-08-09T22:59:55.689Z,13.40
2022-08-09T23:02:24.909Z,14.50
2022-08-09T23:05:17.218Z,14.70
2022-08-09T23:08:29.986Z,13.40
2022-08-09T23:11:23.744Z,17.40
2022-08-09T23:14:17.462Z,16.00
2022-08-09T23:17:15.654Z,17.40
2022-08-09T23:20:10.498Z,13.80
2022-08-09T23:23:02.577Z,13.50
2022-08-09T23:25:56.054Z,12.90
2022-08-09T23:28:48.350Z,14.70
2022-08-09T23:31:42.094Z,16.10
2022-08-09T23:34:34.941Z,15.60
2022-08-09T23:37:27.080Z,13.40
2022-08-09T23:40:19.529Z,14.20
2022-08-09T23:43:13.828Z,14.60
2022-08-09T23:46:06.477Z,14.00
2022-08-09T23:48:59.082Z,15.30
2022-08-09T23:51:52.585Z,11.90
2022-08-09T23:54:45.521Z,13.40
2022-08-09T23:57:44.195Z,12.20
